Camapua, Brazil
Current Conditions -  °F | °C
As of 4:15 AM on Friday 24 Oct 2014 (Local Time) from SBCG Reporting Station
Thunderstorm Thunderstorm  
Wind Chill: 72°   Ceiling: Unl
Heat Index: 72°   Visibility: 6mi
Dew Point: 64°   Wind: 3mph
Humidity: 78%   Direction: 30°NNE
Pressure: 29.91"   Gusts: NA
Location:  19.53°S, 54.04°W
Report Text: SBCG 240715Z 03003KT 9999 VCTS SCT040 FEW045CB 22/18 Q1013 RETS
Loading
Personal Weather Stations






























Interactive Weather Map New forecast layout! Learn more

10-Day Weather Forecast

Advertisements
Track Severe Weather on mobile